Time;durP1;ratioP1;P1;durP2;ratioP2;P2;SDS_P1;SDS_P2;PMS_P1;PMS_P2;Temp;Humidity;BMP_temperature;BMP_pressure;BME280_temperature;BME280_humidity;BME280_pressure;Samples;Min_cycle;Max_cycle;Signal;HPM_P1;HPM_P2
2023/03/02 00:02:05;;;;;;;11.52;2.40;;;5.40;99.90;;;;;;4837507;29;20046;-60
2023/03/02 00:04:48;;;;;;;7.63;2.50;;;5.40;99.90;;;;;;4832054;29;20051;-59
2023/03/02 00:07:21;;;;;;;7.10;2.28;;;5.40;99.90;;;;;;4819372;29;20065;-59
2023/03/02 00:09:49;;;;;;;6.30;2.58;;;5.40;99.90;;;;;;4802514;29;20050;-59
2023/03/02 00:12:16;;;;;;;6.78;3.05;;;5.50;99.90;;;;;;4801013;29;20058;-59
2023/03/02 00:14:44;;;;;;;11.57;2.47;;;5.40;99.90;;;;;;4822044;29;20070;-59
2023/03/02 00:17:12;;;;;;;12.52;3.08;;;5.40;99.90;;;;;;4827442;29;20042;-59
2023/03/02 00:19:39;;;;;;;8.30;2.72;;;5.40;99.90;;;;;;4833807;29;20050;-60
2023/03/02 00:22:07;;;;;;;8.88;2.70;;;5.50;99.90;;;;;;4820339;29;20507;-60
2023/03/02 00:24:37;;;;;;;6.13;2.40;;;5.40;99.90;;;;;;4829187;29;20065;-60
2023/03/02 00:27:05;;;;;;;9.77;2.85;;;5.40;99.90;;;;;;4828128;29;20050;-60
2023/03/02 00:29:33;;;;;;;7.40;3.45;;;5.40;99.90;;;;;;4812935;29;20055;-60
2023/03/02 00:32:02;;;;;;;8.25;2.60;;;5.50;99.90;;;;;;4820069;29;20050;-60
2023/03/02 00:34:33;;;;;;;6.45;2.53;;;5.40;99.90;;;;;;4826622;29;20069;-60
2023/03/02 00:37:00;;;;;;;12.68;3.42;;;5.40;99.90;;;;;;4809798;29;20046;-59
2023/03/02 00:39:29;;;;;;;7.05;2.33;;;5.40;99.90;;;;;;4835800;29;20053;-59
2023/03/02 00:41:56;;;;;;;7.32;2.50;;;5.40;99.90;;;;;;4813060;29;20050;-59
2023/03/02 00:44:24;;;;;;;9.23;2.70;;;5.40;99.90;;;;;;4815570;29;20124;-60
2023/03/02 00:46:51;;;;;;;6.72;2.38;;;5.40;99.90;;;;;;4829148;29;20046;-59
2023/03/02 00:49:19;;;;;;;4.97;2.40;;;5.40;99.90;;;;;;4834548;29;20046;-60
2023/03/02 00:51:47;;;;;;;10.88;4.28;;;5.30;99.90;;;;;;4803286;29;20062;-59
2023/03/02 00:54:15;;;;;;;6.20;2.88;;;5.40;99.90;;;;;;4812810;29;20056;-60
2023/03/02 00:56:43;;;;;;;12.02;3.13;;;5.40;99.90;;;;;;4830315;29;20050;-59
2023/03/02 00:59:33;;;;;;;6.32;2.67;;;5.30;99.90;;;;;;4831811;29;20057;-60
2023/03/02 01:02:20;;;;;;;6.88;2.38;;;5.30;99.90;;;;;;4834659;29;20376;-60
2023/03/02 01:04:49;;;;;;;12.80;3.30;;;5.30;99.90;;;;;;4830616;29;20053;-59
2023/03/02 01:07:19;;;;;;;10.25;2.58;;;5.30;99.90;;;;;;4810594;29;20050;-60
2023/03/02 01:09:50;;;;;;;7.55;2.65;;;5.20;99.90;;;;;;4801600;29;20047;-60
2023/03/02 01:12:17;;;;;;;10.02;2.65;;;5.30;99.90;;;;;;4801368;29;20077;-59
2023/03/02 01:14:47;;;;;;;6.70;2.42;;;5.30;99.90;;;;;;4819560;29;20058;-60
2023/03/02 01:17:15;;;;;;;5.72;2.03;;;5.20;99.90;;;;;;4826388;29;20054;-59
2023/03/02 01:19:43;;;;;;;5.13;2.20;;;5.20;99.90;;;;;;4829640;29;20063;-60
2023/03/02 01:22:10;;;;;;;7.65;1.90;;;5.20;99.90;;;;;;4817863;29;20042;-58
2023/03/02 01:24:38;;;;;;;3.58;1.58;;;5.20;99.90;;;;;;4828079;29;20050;-59
2023/03/02 01:27:05;;;;;;;4.70;1.42;;;5.20;99.90;;;;;;4828251;29;20062;-59
2023/03/02 01:29:33;;;;;;;8.30;2.10;;;5.20;99.90;;;;;;4833952;29;20061;-60
2023/03/02 01:32:01;;;;;;;10.40;2.33;;;5.20;99.90;;;;;;4819882;29;20065;-60
2023/03/02 01:34:30;;;;;;;7.28;1.65;;;5.20;99.90;;;;;;4825869;29;20050;-60
2023/03/02 01:36:58;;;;;;;4.70;1.30;;;5.20;99.90;;;;;;4820448;29;20050;-61
2023/03/02 01:39:25;;;;;;;6.45;1.92;;;5.20;99.90;;;;;;4833616;29;20049;-59
2023/03/02 01:41:53;;;;;;;7.97;2.90;;;5.20;99.90;;;;;;4825830;29;20055;-59
2023/03/02 01:44:50;;;;;;;6.57;1.70;;;5.20;99.90;;;;;;4820429;29;20069;-58
2023/03/02 01:47:34;;;;;;;4.15;1.55;;;5.20;99.90;;;;;;4811205;29;20054;-59
2023/03/02 01:50:26;;;;;;;3.03;1.45;;;5.20;99.90;;;;;;4805522;29;20058;-59
2023/03/02 01:52:57;;;;;;;5.50;1.40;;;5.20;99.90;;;;;;4804807;29;20058;-59
2023/03/02 01:55:30;;;;;;;6.93;2.22;;;5.20;99.90;;;;;;4833072;29;20062;-60
2023/03/02 01:58:01;;;;;;;3.92;2.15;;;5.20;99.90;;;;;;4830953;29;20054;-60
2023/03/02 02:00:36;;;;;;;6.88;2.22;;;5.20;99.90;;;;;;4839797;29;20053;-60
2023/03/02 02:03:30;;;;;;;7.50;2.20;;;5.20;99.90;;;;;;4818748;29;20058;-60
2023/03/02 02:06:12;;;;;;;6.63;1.83;;;5.20;99.90;;;;;;4807913;29;20089;-60
2023/03/02 02:08:40;;;;;;;7.32;2.10;;;5.20;99.90;;;;;;4831941;29;20046;-59
2023/03/02 02:11:07;;;;;;;6.07;2.47;;;5.20;99.90;;;;;;4839410;29;20398;-60
2023/03/02 02:13:35;;;;;;;5.68;2.00;;;5.20;99.90;;;;;;4832372;29;20058;-59
2023/03/02 02:16:03;;;;;;;6.63;2.38;;;5.20;99.90;;;;;;4831429;29;20391;-60
2023/03/02 02:18:37;;;;;;;6.20;2.05;;;5.20;99.90;;;;;;4830514;29;20073;-60
2023/03/02 02:21:06;;;;;;;5.93;2.53;;;5.20;99.90;;;;;;4828776;29;20059;-59
2023/03/02 02:23:59;;;;;;;4.72;2.15;;;5.20;99.90;;;;;;4789261;29;20054;-60
2023/03/02 02:26:35;;;;;;;3.70;2.33;;;5.20;99.90;;;;;;4803018;29;20077;-60
2023/03/02 02:29:21;;;;;;;8.60;2.92;;;5.10;99.90;;;;;;4809371;29;20047;-60
2023/03/02 02:31:59;;;;;;;4.47;2.22;;;5.20;99.90;;;;;;4816211;29;20054;-59
2023/03/02 02:34:34;;;;;;;8.88;2.63;;;5.20;99.90;;;;;;4823610;29;20050;-60
2023/03/02 02:37:15;;;;;;;6.93;2.20;;;5.20;99.90;;;;;;4822484;29;20058;-60
2023/03/02 02:39:46;;;;;;;8.07;2.67;;;5.20;99.90;;;;;;4842652;29;20045;-60
2023/03/02 02:42:33;;;;;;;8.52;3.00;;;5.10;99.90;;;;;;4843118;29;20049;-60
2023/03/02 02:45:05;;;;;;;11.43;3.40;;;5.10;99.90;;;;;;4834805;29;20046;-60
2023/03/02 02:47:34;;;;;;;7.95;2.92;;;5.10;99.90;;;;;;4822916;29;20050;-60
2023/03/02 02:50:02;;;;;;;8.40;3.85;;;5.10;99.90;;;;;;4823564;29;20502;-59
2023/03/02 02:52:29;;;;;;;6.30;3.05;;;5.10;99.90;;;;;;4823699;29;20058;-60
2023/03/02 02:54:58;;;;;;;11.13;3.50;;;5.10;99.90;;;;;;4824830;29;20050;-60
2023/03/02 02:57:28;;;;;;;6.03;3.30;;;5.10;99.90;;;;;;4821921;29;20047;-61
2023/03/02 03:00:00;;;;;;;8.65;2.95;;;5.10;99.90;;;;;;4823405;29;20070;-60
2023/03/02 03:02:33;;;;;;;5.15;2.95;;;5.00;99.90;;;;;;4823634;29;20475;-60
2023/03/02 03:05:03;;;;;;;11.35;3.22;;;5.10;99.90;;;;;;4823225;29;20419;-59
2023/03/02 03:07:34;;;;;;;10.05;3.38;;;5.10;99.90;;;;;;4823472;29;20051;-59
2023/03/02 03:10:26;;;;;;;;;;;5.10;99.90;;;;;;4823522;29;20054;-59
2023/03/02 03:12:54;;;;;;;;;;;5.10;99.90;;;;;;4824285;29;19925;-59
2023/03/02 03:15:22;;;;;;;9.95;3.90;;;;;;;;;;4822508;29;19931;-60
2023/03/02 03:17:57;;;;;;;13.25;3.75;;;5.00;99.90;;;;;;4824374;29;20058;-60
2023/03/02 03:20:27;;;;;;;9.57;4.50;;;5.00;99.90;;;;;;4822781;29;20065;-59
2023/03/02 03:22:58;;;;;;;10.68;4.78;;;5.00;99.90;;;;;;4824208;29;20050;-59
2023/03/02 03:25:27;;;;;;;13.88;4.63;;;5.00;99.90;;;;;;4823031;29;20051;-60
2023/03/02 03:27:55;;;;;;;10.70;4.43;;;5.00;99.90;;;;;;4828437;29;20050;-59
2023/03/02 03:30:23;;;;;;;10.95;4.50;;;5.00;99.90;;;;;;4841271;29;20050;-59
2023/03/02 03:32:51;;;;;;;12.98;5.32;;;5.00;99.90;;;;;;4842110;29;20057;-59
2023/03/02 03:35:19;;;;;;;12.45;5.03;;;5.00;99.90;;;;;;4842398;29;20050;-59
2023/03/02 03:37:47;;;;;;;10.93;4.07;;;5.00;99.90;;;;;;4829863;29;20061;-59
2023/03/02 03:40:17;;;;;;;10.93;4.88;;;5.00;99.90;;;;;;4823071;29;20057;-59
2023/03/02 03:42:46;;;;;;;11.73;4.55;;;5.00;99.90;;;;;;4822715;29;20515;-60
2023/03/02 03:45:14;;;;;;;9.85;4.78;;;5.00;99.90;;;;;;4816706;29;20050;-60
2023/03/02 03:47:43;;;;;;;10.65;4.90;;;5.00;99.90;;;;;;4822984;29;20072;-60
2023/03/02 03:50:11;;;;;;;14.95;6.35;;;5.00;99.90;;;;;;4822889;29;20051;-60
2023/03/02 03:52:40;;;;;;;12.40;5.27;;;5.00;99.90;;;;;;4822607;29;20125;-61
2023/03/02 03:55:14;;;;;;;13.48;5.50;;;5.00;99.90;;;;;;4822599;29;20057;-61
2023/03/02 03:57:43;;;;;;;12.75;5.35;;;5.00;99.90;;;;;;4826780;29;20053;-60
2023/03/02 04:00:15;;;;;;;13.75;6.70;;;5.00;99.90;;;;;;4829512;29;20047;-60
2023/03/02 04:02:50;;;;;;;13.27;5.20;;;5.00;99.90;;;;;;4822333;29;20050;-60
2023/03/02 04:05:19;;;;;;;14.73;4.90;;;5.00;99.90;;;;;;4803659;29;20050;-61
2023/03/02 04:07:50;;;;;;;16.30;5.03;;;5.00;99.90;;;;;;4804247;29;20070;-59
2023/03/02 04:10:19;;;;;;;13.75;5.15;;;5.00;99.90;;;;;;4815487;29;20484;-60
2023/03/02 04:12:47;;;;;;;13.15;4.68;;;5.00;99.90;;;;;;4803955;29;20047;-60
2023/03/02 04:15:16;;;;;;;12.82;5.15;;;5.00;99.90;;;;;;4818224;29;20047;-60
2023/03/02 04:17:45;;;;;;;12.90;5.15;;;5.00;99.90;;;;;;4807050;29;20061;-60
2023/03/02 04:20:17;;;;;;;17.85;6.45;;;5.00;99.90;;;;;;4822334;29;20399;-60
2023/03/02 04:22:49;;;;;;;15.65;4.90;;;5.00;99.90;;;;;;4823644;29;20054;-60
2023/03/02 04:25:21;;;;;;;11.93;4.68;;;5.00;99.90;;;;;;4822228;29;20069;-60
2023/03/02 04:27:52;;;;;;;12.77;4.70;;;5.00;99.90;;;;;;4827184;29;20414;-60
2023/03/02 04:30:24;;;;;;;14.43;4.97;;;5.00;99.90;;;;;;4840224;29;20475;-60
2023/03/02 04:32:52;;;;;;;10.60;4.80;;;5.00;99.90;;;;;;4840120;29;20053;-60
2023/03/02 04:35:21;;;;;;;14.75;5.57;;;5.00;99.90;;;;;;4832599;29;20510;-59
2023/03/02 04:37:49;;;;;;;7.40;4.13;;;;;;;;;;4822018;29;20414;-58
2023/03/02 04:40:18;;;;;;;11.13;4.70;;;5.00;99.90;;;;;;4820630;29;20403;-58
2023/03/02 04:42:45;;;;;;;9.85;4.28;;;5.00;99.90;;;;;;4806447;29;20061;-59
2023/03/02 04:45:13;;;;;;;8.52;4.57;;;5.00;99.90;;;;;;4805591;29;20051;-59
2023/03/02 04:47:41;;;;;;;13.43;4.15;;;;;;;;;;4815137;29;20065;-59
2023/03/02 04:50:12;;;;;;;10.60;4.57;;;5.00;99.90;;;;;;4821848;29;20053;-59
2023/03/02 04:52:41;;;;;;;9.60;4.15;;;5.00;99.90;;;;;;4821688;29;20058;-59
2023/03/02 04:55:14;;;;;;;11.63;4.60;;;5.00;99.90;;;;;;4822890;29;20050;-59
2023/03/02 04:57:41;;;;;;;12.55;3.92;;;5.00;99.90;;;;;;4826853;29;20050;-60
2023/03/02 05:00:11;;;;;;;14.02;4.30;;;5.00;99.90;;;;;;4840945;29;20050;-59
2023/03/02 05:02:39;;;;;;;;;;;5.00;99.90;;;;;;4841297;29;20041;-59
2023/03/02 05:05:12;;;;;;;6.03;3.30;;;4.90;99.90;;;;;;4826213;29;20443;-59
2023/03/02 05:07:39;;;;;;;10.02;4.18;;;5.00;99.90;;;;;;4822742;29;20042;-60
2023/03/02 05:10:08;;;;;;;11.38;3.45;;;5.00;99.90;;;;;;4822822;29;20491;-60
2023/03/02 05:12:53;;;;;;;9.10;3.22;;;5.00;99.90;;;;;;4822455;29;20050;-59
2023/03/02 05:15:22;;;;;;;7.50;2.83;;;4.90;99.90;;;;;;4821695;29;20073;-60
2023/03/02 05:17:50;;;;;;;10.95;3.08;;;4.90;99.90;;;;;;4822761;29;20057;-60
2023/03/02 05:20:18;;;;;;;11.07;4.25;;;4.90;99.90;;;;;;4822208;29;20052;-60
2023/03/02 05:22:46;;;;;;;5.93;2.72;;;4.90;99.90;;;;;;4823902;29;20406;-60
2023/03/02 05:25:13;;;;;;;7.05;2.90;;;4.90;99.90;;;;;;4826493;29;20046;-60
2023/03/02 05:27:41;;;;;;;4.53;2.33;;;4.90;99.90;;;;;;4830183;29;20049;-58
2023/03/02 05:30:13;;;;;;;8.27;2.20;;;4.90;99.90;;;;;;4833794;29;20376;-60
2023/03/02 05:32:41;;;;;;;6.72;2.78;;;4.90;99.90;;;;;;4826073;29;20061;-59
2023/03/02 05:35:09;;;;;;;5.68;2.78;;;5.00;99.90;;;;;;4826205;29;20057;-59
2023/03/02 05:37:41;;;;;;;8.75;3.15;;;4.90;99.90;;;;;;4826121;29;20042;-61
2023/03/02 05:40:15;;;;;;;6.55;3.13;;;5.00;99.90;;;;;;4825049;29;20376;-62
2023/03/02 05:42:43;;;;;;;6.38;2.40;;;4.90;99.90;;;;;;4825050;29;20055;-63
2023/03/02 05:45:40;;;;;;;10.38;2.85;;;4.90;99.90;;;;;;4820194;29;20057;-63
2023/03/02 05:48:07;;;;;;;10.05;2.70;;;4.90;99.90;;;;;;4816495;29;20496;-59
2023/03/02 05:50:35;;;;;;;9.43;2.38;;;4.90;99.90;;;;;;4818680;29;20070;-59
2023/03/02 05:53:03;;;;;;;6.45;2.75;;;4.90;99.90;;;;;;4821373;29;20057;-59
2023/03/02 05:55:35;;;;;;;5.75;2.45;;;4.90;99.90;;;;;;4821813;29;20061;-60
2023/03/02 05:58:06;;;;;;;9.80;3.40;;;4.90;99.90;;;;;;4818559;29;20214;-61
2023/03/02 06:00:33;;;;;;;7.13;2.92;;;4.90;99.90;;;;;;4804629;29;20054;-60
2023/03/02 06:03:01;;;;;;;5.78;3.53;;;4.90;99.90;;;;;;4800260;29;20049;-60
2023/03/02 06:05:29;;;;;;;10.50;3.70;;;4.90;99.90;;;;;;4800002;29;20046;-59
2023/03/02 06:07:57;;;;;;;9.65;3.15;;;4.90;99.90;;;;;;4830115;29;20050;-59
2023/03/02 06:10:24;;;;;;;9.15;3.00;;;4.90;99.90;;;;;;4832058;29;20046;-58
2023/03/02 06:12:52;;;;;;;5.13;2.25;;;4.90;99.90;;;;;;4826862;29;20521;-59
2023/03/02 06:15:20;;;;;;;5.85;2.50;;;4.90;99.90;;;;;;4826492;29;20039;-60
2023/03/02 06:17:48;;;;;;;10.10;2.63;;;4.90;99.90;;;;;;4822214;29;20062;-60
2023/03/02 06:20:17;;;;;;;6.15;1.95;;;4.90;99.90;;;;;;4820774;29;20054;-59
2023/03/02 06:22:45;;;;;;;5.10;2.17;;;5.40;99.90;;;;;;4828673;29;20046;-60
2023/03/02 06:25:19;;;;;;;8.10;1.60;;;4.90;99.90;;;;;;4832950;29;20046;-59
2023/03/02 06:27:52;;;;;;;5.32;1.50;;;4.80;99.90;;;;;;4823479;29;20070;-59
2023/03/02 06:30:22;;;;;;;4.68;1.67;;;4.80;99.90;;;;;;4821912;29;20054;-60
2023/03/02 06:32:50;;;;;;;5.43;1.40;;;4.80;99.90;;;;;;4822277;29;20051;-61
2023/03/02 06:35:18;;;;;;;2.00;1.48;;;4.80;99.90;;;;;;4805629;29;20510;-59
2023/03/02 06:37:46;;;;;;;6.60;1.60;;;4.80;99.90;;;;;;4812640;29;20521;-59
2023/03/02 06:40:14;;;;;;;3.47;1.52;;;4.80;99.90;;;;;;4817474;29;20055;-59
2023/03/02 06:42:42;;;;;;;5.18;1.70;;;4.80;99.90;;;;;;4828265;29;20539;-59
2023/03/02 06:45:10;;;;;;;1.73;1.15;;;4.70;99.90;;;;;;4823409;29;20054;-59
2023/03/02 06:47:38;;;;;;;5.00;1.40;;;4.70;99.90;;;;;;4838143;29;20076;-59
2023/03/02 06:50:07;;;;;;;3.20;1.63;;;4.70;99.90;;;;;;4805123;29;20047;-60
2023/03/02 06:52:35;;;;;;;4.53;1.65;;;4.70;99.90;;;;;;4827264;29;20145;-59
2023/03/02 06:55:03;;;;;;;4.28;1.30;;;;;;;;;;4839810;29;20510;-59
2023/03/02 06:57:34;;;;;;;1.73;1.17;;;4.70;99.90;;;;;;4835789;29;20053;-59
2023/03/02 07:00:23;;;;;;;3.78;1.48;;;4.70;99.90;;;;;;4820226;29;20414;-60
2023/03/02 07:02:53;;;;;;;4.03;1.92;;;4.70;99.90;;;;;;4820872;29;20054;-60
2023/03/02 07:05:23;;;;;;;3.13;1.57;;;4.70;99.90;;;;;;4812071;29;20034;-60
2023/03/02 07:07:51;;;;;;;1.10;1.00;;;4.60;99.90;;;;;;4826742;29;20042;-60
2023/03/02 07:10:18;;;;;;;2.05;1.50;;;4.70;99.90;;;;;;4832138;29;20065;-60
2023/03/02 07:12:46;;;;;;;4.00;1.30;;;4.70;99.90;;;;;;4827825;29;20057;-60
2023/03/02 07:15:14;;;;;;;3.47;1.60;;;4.60;99.90;;;;;;4838121;29;20058;-60
2023/03/02 07:17:43;;;;;;;2.67;1.52;;;4.70;99.90;;;;;;4835514;29;20395;-60
2023/03/02 07:20:14;;;;;;;4.10;2.00;;;4.70;99.90;;;;;;4802197;29;20061;-60
2023/03/02 07:22:42;;;;;;;2.70;1.70;;;4.70;99.90;;;;;;4815532;29;20053;-58
2023/03/02 07:25:10;;;;;;;3.17;1.50;;;4.80;99.90;;;;;;4839401;29;20054;-59
2023/03/02 07:27:38;;;;;;;3.42;1.50;;;4.70;99.90;;;;;;4839262;29;20847;-60
2023/03/02 07:30:07;;;;;;;3.45;1.38;;;4.70;99.90;;;;;;4834304;29;20058;-59
2023/03/02 07:32:34;;;;;;;4.32;1.85;;;4.70;99.90;;;;;;4821920;29;20049;-60
2023/03/02 07:35:02;;;;;;;5.55;1.50;;;4.80;99.90;;;;;;4803084;29;20058;-61
2023/03/02 07:37:30;;;;;;;4.35;1.83;;;4.80;99.90;;;;;;4811262;29;20050;-60
2023/03/02 07:39:58;;;;;;;5.22;1.75;;;4.80;99.90;;;;;;4834656;29;20060;-61
2023/03/02 07:42:27;;;;;;;1.95;1.65;;;4.80;99.90;;;;;;4824263;29;20050;-60
2023/03/02 07:44:58;;;;;;;2.03;1.58;;;4.80;99.90;;;;;;4824604;29;20781;-59
2023/03/02 07:47:26;;;;;;;5.13;1.70;;;4.80;99.90;;;;;;4822845;29;20046;-59
2023/03/02 07:49:53;;;;;;;4.13;1.63;;;4.80;99.90;;;;;;4794638;29;20051;-60
2023/03/02 07:52:21;;;;;;;4.00;1.55;;;4.80;99.90;;;;;;4817843;29;20057;-60
2023/03/02 07:54:49;;;;;;;3.10;1.52;;;4.90;99.90;;;;;;4838848;29;20402;-59
2023/03/02 07:57:17;;;;;;;5.28;2.08;;;4.90;99.90;;;;;;4838709;29;20391;-60
2023/03/02 07:59:44;;;;;;;1.20;1.10;;;4.90;99.90;;;;;;4822056;29;20050;-59
2023/03/02 08:02:15;;;;;;;4.80;1.42;;;4.90;99.90;;;;;;4820364;29;20074;-60
2023/03/02 08:04:43;;;;;;;4.10;1.50;;;4.90;99.90;;;;;;4811989;29;20059;-59
2023/03/02 08:07:10;;;;;;;2.47;1.20;;;4.90;99.90;;;;;;4801604;29;20530;-60
2023/03/02 08:09:38;;;;;;;4.15;1.58;;;4.90;99.90;;;;;;4833515;29;20038;-59
2023/03/02 08:12:06;;;;;;;2.80;1.20;;;5.00;99.90;;;;;;4822165;29;20411;-60
2023/03/02 08:14:34;;;;;;;3.05;1.42;;;5.00;99.90;;;;;;4837912;29;20548;-59
2023/03/02 08:17:03;;;;;;;4.70;1.60;;;5.00;99.90;;;;;;4819395;29;20101;-60
2023/03/02 08:19:32;;;;;;;2.95;1.00;;;5.00;99.90;;;;;;4818976;29;20407;-60
2023/03/02 08:22:01;;;;;;;2.55;1.27;;;5.10;99.90;;;;;;4803832;29;20055;-60
2023/03/02 08:24:29;;;;;;;1.35;1.17;;;5.10;99.90;;;;;;4838251;29;20398;-60
2023/03/02 08:27:00;;;;;;;2.75;1.30;;;5.00;99.90;;;;;;4822100;29;20077;-61
2023/03/02 08:29:28;;;;;;;1.88;0.90;;;5.10;99.90;;;;;;4830382;29;20054;-60
2023/03/02 08:31:57;;;;;;;4.07;0.90;;;5.10;99.90;;;;;;4801901;29;20542;-60
2023/03/02 08:34:26;;;;;;;1.45;0.73;;;5.10;99.90;;;;;;4822495;29;20055;-60
2023/03/02 08:36:54;;;;;;;2.70;1.00;;;5.10;99.90;;;;;;4801477;29;20053;-60
2023/03/02 08:39:22;;;;;;;2.92;1.20;;;5.10;99.90;;;;;;4837047;29;20057;-60
2023/03/02 08:41:51;;;;;;;3.47;1.20;;;5.20;99.90;;;;;;4819057;29;20507;-60
2023/03/02 08:44:22;;;;;;;1.75;1.20;;;5.10;99.90;;;;;;4801454;29;20066;-61
2023/03/02 08:46:50;;;;;;;2.10;1.42;;;5.20;99.90;;;;;;4800662;29;20521;-60
2023/03/02 08:49:18;;;;;;;4.03;1.60;;;5.20;99.90;;;;;;4826455;29;20535;-60
2023/03/02 08:51:52;;;;;;;3.42;1.35;;;5.20;99.90;;;;;;4817021;29;20415;-60
2023/03/02 08:54:21;;;;;;;1.73;1.55;;;5.20;99.90;;;;;;4798512;29;20059;-60
2023/03/02 08:56:49;;;;;;;2.30;1.70;;;5.20;99.90;;;;;;4798558;29;20058;-60
2023/03/02 08:59:17;;;;;;;4.15;1.60;;;5.20;99.90;;;;;;4824608;29;20140;-59
2023/03/02 09:01:44;;;;;;;3.92;1.80;;;5.20;99.90;;;;;;4819544;29;20054;-60
2023/03/02 09:04:12;;;;;;;6.78;1.90;;;5.30;99.90;;;;;;4822777;29;20059;-60
2023/03/02 09:06:42;;;;;;;3.25;1.80;;;5.30;99.90;;;;;;4810920;29;20058;-60
2023/03/02 09:09:10;;;;;;;;;;;5.30;99.90;;;;;;4835724;29;20046;-60
2023/03/02 09:11:38;;;;;;;5.97;2.70;;;5.40;99.90;;;;;;4837467;29;19932;-60
2023/03/02 09:14:06;;;;;;;2.97;2.10;;;5.40;99.90;;;;;;4830743;29;20054;-60
2023/03/02 09:16:33;;;;;;;5.13;2.80;;;5.40;99.90;;;;;;4819685;29;20528;-60
2023/03/02 09:19:01;;;;;;;4.50;2.58;;;5.50;99.90;;;;;;4825304;29;20062;-60
2023/03/02 09:21:29;;;;;;;6.63;3.38;;;5.50;99.90;;;;;;4819574;29;20054;-59
2023/03/02 09:23:57;;;;;;;8.50;3.78;;;5.60;99.90;;;;;;4834507;29;20054;-60
2023/03/02 09:26:25;;;;;;;6.88;2.90;;;5.60;99.90;;;;;;4822699;29;20051;-59
2023/03/02 09:28:54;;;;;;;3.92;2.88;;;5.70;99.90;;;;;;4833043;29;20054;-59
2023/03/02 09:31:22;;;;;;;6.57;3.75;;;5.70;99.90;;;;;;4837170;29;20053;-60
2023/03/02 09:33:50;;;;;;;5.18;3.10;;;5.80;99.90;;;;;;4833652;29;20062;-60
2023/03/02 09:36:21;;;;;;;6.65;3.47;;;5.80;99.90;;;;;;4801280;29;20050;-59
2023/03/02 09:38:49;;;;;;;7.15;3.10;;;5.80;99.90;;;;;;4827422;29;20053;-60
2023/03/02 09:41:20;;;;;;;5.78;3.65;;;5.70;99.90;;;;;;4819015;29;20058;-60
2023/03/02 09:44:12;;;;;;;6.60;2.40;;;5.80;99.90;;;;;;4827347;29;20053;-60
2023/03/02 09:46:48;;;;;;;9.63;3.65;;;5.80;99.90;;;;;;4817886;29;20050;-59
2023/03/02 09:49:31;;;;;;;5.93;2.70;;;5.80;99.90;;;;;;4829309;29;20098;-59
2023/03/02 09:52:16;;;;;;;3.53;2.45;;;5.90;99.90;;;;;;4801822;29;20051;-60
2023/03/02 09:54:44;;;;;;;5.53;2.35;;;5.90;99.90;;;;;;4834169;29;20046;-59
2023/03/02 09:57:25;;;;;;;3.88;2.65;;;5.90;99.90;;;;;;4819210;29;20058;-59
2023/03/02 09:59:58;;;;;;;3.10;2.55;;;5.80;99.90;;;;;;4836921;29;20074;-59
2023/03/02 10:02:52;;;;;;;4.45;3.15;;;6.00;99.90;;;;;;4825067;29;20054;-59
2023/03/02 10:05:26;;;;;;;5.13;2.50;;;6.00;99.90;;;;;;4808994;29;20070;-59
2023/03/02 10:07:54;;;;;;;4.65;2.50;;;6.10;99.90;;;;;;4812136;29;20702;-60
2023/03/02 10:10:35;;;;;;;4.85;3.17;;;6.20;99.90;;;;;;4839015;29;20491;-59
2023/03/02 10:13:27;;;;;;;6.53;3.50;;;6.20;99.90;;;;;;4831514;29;20046;-59
2023/03/02 10:15:58;;;;;;;4.88;3.03;;;6.30;99.90;;;;;;4820739;29;20522;-58
2023/03/02 10:18:38;;;;;;;4.28;3.20;;;6.30;99.90;;;;;;4829059;29;20513;-59
2023/03/02 10:21:28;;;;;;;5.78;3.33;;;6.40;99.90;;;;;;4807391;29;20071;-59
2023/03/02 10:24:53;;;;;;;4.13;2.97;;;6.50;99.90;;;;;;4833156;29;20062;-59
2023/03/02 10:27:36;;;;;;;4.93;3.13;;;6.50;99.90;;;;;;4824719;29;20065;-60
2023/03/02 10:30:40;;;;;;;8.98;4.05;;;6.40;99.90;;;;;;4840776;29;20049;-59
2023/03/02 10:33:17;;;;;;;6.38;3.40;;;6.50;99.90;;;;;;4841418;29;20069;-59
2023/03/02 10:35:48;;;;;;;6.65;3.53;;;6.50;99.90;;;;;;4818476;29;20059;-61
2023/03/02 10:38:22;;;;;;;4.50;3.03;;;6.50;99.90;;;;;;4827353;29;20066;-59
2023/03/02 10:40:58;;;;;;;5.93;3.00;;;6.50;99.90;;;;;;4839083;29;20057;-59
2023/03/02 10:43:48;;;;;;;4.45;3.15;;;6.60;99.90;;;;;;4838631;29;20406;-59
2023/03/02 10:46:16;;;;;;;4.72;2.67;;;6.60;99.90;;;;;;4840091;29;20065;-59
2023/03/02 10:49:00;;;;;;;5.53;2.90;;;6.60;99.90;;;;;;4828828;29;20066;-59
2023/03/02 10:51:36;;;;;;;7.72;3.00;;;6.60;99.90;;;;;;4806314;29;20051;-60
2023/03/02 10:54:11;;;;;;;5.60;3.13;;;6.70;99.90;;;;;;4834155;29;20062;-59
2023/03/02 10:56:49;;;;;;;5.20;3.10;;;6.70;99.90;;;;;;4838778;29;20509;-60
2023/03/02 10:59:38;;;;;;;9.65;3.58;;;6.80;99.90;;;;;;4826627;29;20502;-59
2023/03/02 11:02:17;;;;;;;3.55;3.20;;;6.80;99.90;;;;;;4820734;29;20047;-60
2023/03/02 11:04:45;;;;;;;3.78;2.85;;;6.80;99.90;;;;;;4835495;29;20327;-60
2023/03/02 11:07:23;;;;;;;3.63;2.50;;;6.90;99.90;;;;;;4811039;29;20078;-60
2023/03/02 11:10:01;;;;;;;4.90;2.65;;;6.70;99.90;;;;;;4827334;29;20050;-59
2023/03/02 11:12:31;;;;;;;4.07;2.85;;;6.70;99.90;;;;;;4825005;29;20070;-60
2023/03/02 11:15:12;;;;;;;3.15;2.60;;;6.70;99.90;;;;;;4819239;29;20059;-59
2023/03/02 11:17:42;;;;;;;4.05;2.42;;;6.70;99.90;;;;;;4808484;29;20046;-60
2023/03/02 11:20:37;;;;;;;3.63;2.80;;;6.70;99.90;;;;;;4827010;29;20051;-59
2023/03/02 11:23:40;;;;;;;3.60;2.10;;;6.70;99.90;;;;;;4825891;29;20050;-59
2023/03/02 11:26:33;;;;;;;3.42;2.17;;;6.80;99.90;;;;;;4839434;29;20646;-59
2023/03/02 11:29:05;;;;;;;5.05;1.85;;;6.80;99.90;;;;;;4835293;29;20058;-58
2023/03/02 11:32:09;;;;;;;3.25;2.45;;;6.90;99.90;;;;;;4826306;29;20051;-59
2023/03/02 11:34:58;;;;;;;1.33;1.13;;;7.20;99.90;;;;;;4813688;29;20055;-60
2023/03/02 11:37:29;;;;;;;4.35;1.17;;;7.20;99.90;;;;;;4807273;29;20058;-60
2023/03/02 11:40:02;;;;;;;2.90;1.23;;;7.40;99.90;;;;;;4824174;29;20058;-59
2023/03/02 11:42:37;;;;;;;1.67;1.00;;;7.50;99.90;;;;;;4810699;29;20046;-58
2023/03/02 11:45:15;;;;;;;4.47;1.20;;;7.50;99.90;;;;;;4830934;29;20058;-59
2023/03/02 11:47:52;;;;;;;3.47;1.40;;;7.70;99.90;;;;;;4825049;29;20061;-58
2023/03/02 11:50:33;;;;;;;7.30;1.38;;;8.00;99.90;;;;;;4831996;29;20846;-59
2023/03/02 11:53:05;;;;;;;1.52;1.23;;;8.20;99.90;;;;;;4828260;29;20517;-60
2023/03/02 11:55:41;;;;;;;1.27;1.10;;;8.60;99.90;;;;;;4838883;29;20589;-60
2023/03/02 11:58:23;;;;;;;1.42;0.82;;;9.00;99.90;;;;;;4821427;29;20047;-60
2023/03/02 12:00:53;;;;;;;3.72;1.20;;;9.00;99.90;;;;;;4806656;29;20058;-60
2023/03/02 12:03:30;;;;;;;1.42;1.25;;;8.90;99.90;;;;;;4801480;29;20059;-60
2023/03/02 12:06:17;;;;;;;1.65;1.35;;;8.90;99.90;;;;;;4808223;29;20398;-59
2023/03/02 12:08:48;;;;;;;1.50;1.30;;;8.80;99.90;;;;;;4822761;29;20043;-59
2023/03/02 12:11:15;;;;;;;1.90;1.70;;;8.60;99.90;;;;;;4819228;29;20558;-60
2023/03/02 12:13:50;;;;;;;2.17;1.98;;;8.60;99.90;;;;;;4827101;29;20046;-59
2023/03/02 12:16:19;;;;;;;1.70;1.60;;;8.50;99.90;;;;;;4820458;29;20065;-58
2023/03/02 12:18:49;;;;;;;5.30;2.00;;;8.40;99.90;;;;;;4827910;29;20057;-58
2023/03/02 12:21:19;;;;;;;4.90;2.92;;;8.30;99.90;;;;;;4818848;29;20061;-60
2023/03/02 12:23:49;;;;;;;;;;;8.20;99.90;;;;;;4834154;29;20046;-60
2023/03/02 12:26:20;;;;;;;2.47;2.28;;;8.20;99.90;;;;;;4821762;29;19944;-59
2023/03/02 12:29:12;;;;;;;5.05;2.63;;;8.70;99.90;;;;;;4832480;29;20053;-59
2023/03/02 12:31:50;;;;;;;2.00;1.80;;;9.60;99.90;;;;;;4819808;29;20047;-60
2023/03/02 12:34:37;;;;;;;4.63;2.42;;;10.40;99.90;;;;;;4829428;29;20615;-60
2023/03/02 12:37:23;;;;;;;4.20;2.30;;;10.90;99.90;;;;;;4811798;29;20050;-60
2023/03/02 12:40:28;;;;;;;2.15;1.90;;;11.40;99.90;;;;;;4820051;29;20050;-60
2023/03/02 12:43:28;;;;;;;2.67;1.65;;;11.40;99.90;;;;;;4826519;29;20057;-60
2023/03/02 12:46:14;;;;;;;3.15;2.08;;;11.80;98.80;;;;;;4837249;29;20054;-61
2023/03/02 12:48:47;;;;;;;3.85;2.05;;;12.30;98.50;;;;;;4837715;29;20054;-60
2023/03/02 12:51:24;;;;;;;2.88;1.25;;;12.80;97.40;;;;;;4827029;29;20475;-61
2023/03/02 12:54:10;;;;;;;4.05;1.77;;;13.30;95.80;;;;;;4833599;29;20057;-61
2023/03/02 12:56:38;;;;;;;4.57;1.95;;;13.80;95.80;;;;;;4817820;29;20053;-62
2023/03/02 12:59:06;;;;;;;2.67;1.27;;;14.10;92.50;;;;;;4833969;29;20050;-61
2023/03/02 13:01:33;;;;;;;1.85;1.40;;;14.30;91.70;;;;;;4831553;29;20419;-60
2023/03/02 13:04:01;;;;;;;5.50;1.60;;;14.40;91.00;;;;;;4834286;29;20053;-60
2023/03/02 13:06:31;;;;;;;1.70;1.20;;;14.40;87.90;;;;;;4828128;29;20169;-60
2023/03/02 13:08:59;;;;;;;5.80;1.33;;;14.40;89.10;;;;;;4832736;29;20410;-61
2023/03/02 13:11:31;;;;;;;1.70;1.42;;;14.50;89.70;;;;;;4835757;29;20510;-61
2023/03/02 13:14:00;;;;;;;3.25;1.30;;;14.60;87.90;;;;;;4818233;29;20050;-60
2023/03/02 13:16:30;;;;;;;1.95;1.35;;;14.20;87.20;;;;;;4819285;29;20050;-60
2023/03/02 13:19:02;;;;;;;5.32;2.58;;;14.70;86.40;;;;;;4821161;29;20046;-61
2023/03/02 13:21:36;;;;;;;4.95;1.60;;;14.70;84.50;;;;;;4815411;29;20055;-61
2023/03/02 13:24:24;;;;;;;3.60;1.27;;;14.70;84.50;;;;;;4831247;29;20053;-60
2023/03/02 13:26:57;;;;;;;2.08;1.23;;;14.50;84.00;;;;;;4827132;29;20050;-60